createdAt,value
2022-09-30T00:01:28.099Z,93.06
2022-09-30T00:04:25.920Z,92.99
2022-09-30T00:07:22.437Z,92.73
2022-09-30T00:10:19.541Z,92.91
2022-09-30T00:13:16.585Z,91.76
2022-09-30T00:16:14.334Z,90.43
2022-09-30T00:19:11.988Z,90.63
2022-09-30T00:22:09.790Z,92.74
2022-09-30T00:25:07.282Z,93.99
2022-09-30T00:28:07.973Z,94.15
2022-09-30T00:31:07.940Z,94.50
2022-09-30T00:34:08.474Z,94.15
2022-09-30T00:37:05.942Z,91.86
2022-09-30T00:40:02.505Z,89.84
2022-09-30T00:43:00.579Z,89.31
2022-09-30T00:45:58.279Z,89.52
2022-09-30T00:48:57.054Z,88.63
2022-09-30T00:51:55.480Z,91.51
2022-09-30T00:54:53.142Z,91.36
2022-09-30T00:57:50.690Z,89.83
2022-09-30T01:00:48.388Z,88.51
2022-09-30T01:03:59.098Z,87.41
2022-09-30T01:07:01.746Z,87.81
2022-09-30T01:09:58.821Z,90.69
2022-09-30T01:12:56.435Z,92.69
2022-09-30T01:15:58.469Z,91.89
2022-09-30T01:19:20.030Z,92.54
2022-09-30T01:22:41.925Z,93.87
2022-09-30T01:26:01.593Z,93.51
2022-09-30T01:29:17.093Z,92.64
2022-09-30T01:32:52.149Z,92.19
2022-09-30T01:36:11.201Z,92.72
2022-09-30T01:39:20.706Z,93.45
2022-09-30T01:42:38.070Z,93.10
2022-09-30T01:45:52.154Z,93.93
2022-09-30T01:48:57.832Z,93.67
2022-09-30T01:52:17.474Z,91.55
2022-09-30T01:55:37.957Z,90.08
2022-09-30T01:58:53.204Z,89.11
2022-09-30T02:01:57.092Z,90.77
2022-09-30T02:05:19.755Z,91.54
2022-09-30T02:08:46.334Z,93.74
2022-09-30T02:11:43.738Z,93.71
2022-09-30T02:14:45.011Z,95.30
2022-09-30T02:18:17.173Z,94.98
2022-09-30T02:21:17.648Z,94.67
2022-09-30T02:24:15.354Z,94.09
2022-09-30T02:27:20.650Z,94.48
2022-09-30T02:30:17.458Z,92.50
2022-09-30T02:33:20.291Z,91.09
2022-09-30T02:36:30.678Z,90.48
2022-09-30T02:39:40.948Z,91.63
2022-09-30T02:42:37.678Z,91.74
2022-09-30T02:45:49.385Z,90.71
2022-09-30T02:48:52.719Z,91.80
2022-09-30T02:51:56.377Z,92.65
2022-09-30T02:55:10.426Z,92.58
2022-09-30T02:58:15.042Z,93.34
2022-09-30T03:01:13.674Z,93.23
2022-09-30T03:04:13.089Z,93.37
2022-09-30T03:07:10.378Z,95.72
2022-09-30T03:10:17.388Z,95.34
2022-09-30T03:13:23.816Z,94.13
2022-09-30T03:16:47.590Z,96.06
2022-09-30T03:20:03.683Z,98.91
2022-09-30T03:23:22.215Z,100.00
2022-09-30T03:26:53.705Z,99.98
2022-09-30T03:30:03.193Z,99.62
2022-09-30T03:33:08.596Z,100.00
2022-09-30T03:36:28.058Z,100.00
2022-09-30T03:39:45.718Z,100.00
2022-09-30T03:42:51.548Z,100.00
2022-09-30T03:45:55.752Z,100.00
2022-09-30T03:48:56.912Z,100.00
2022-09-30T03:51:54.350Z,100.00
2022-09-30T03:54:56.523Z,100.00
2022-09-30T03:57:54.429Z,100.00
2022-09-30T04:00:53.151Z,100.00
2022-09-30T04:03:53.595Z,100.00
2022-09-30T04:06:51.067Z,100.00
2022-09-30T04:09:47.675Z,100.00
2022-09-30T04:12:44.532Z,100.00
2022-09-30T04:15:42.098Z,100.00
2022-09-30T04:18:39.898Z,100.00
2022-09-30T04:21:36.758Z,100.00
2022-09-30T04:24:33.650Z,100.00
2022-09-30T04:27:30.749Z,100.00
2022-09-30T04:30:32.692Z,100.00
2022-09-30T04:33:30.669Z,99.35
2022-09-30T04:36:27.850Z,97.71
2022-09-30T04:39:24.894Z,95.10
2022-09-30T04:42:21.698Z,93.21
2022-09-30T04:45:20.370Z,92.97
2022-09-30T04:48:17.785Z,92.95
2022-09-30T04:51:15.744Z,94.20
2022-09-30T04:54:13.449Z,94.57
2022-09-30T04:57:10.536Z,94.55
2022-09-30T05:00:09.420Z,94.71
2022-09-30T05:03:06.901Z,96.75
2022-09-30T05:06:04.364Z,99.01
2022-09-30T05:09:01.574Z,99.06
2022-09-30T05:11:58.893Z,98.12
2022-09-30T05:14:55.522Z,98.28
2022-09-30T05:17:53.273Z,97.44
2022-09-30T05:20:51.374Z,97.32
2022-09-30T05:23:49.259Z,97.60
2022-09-30T05:26:46.861Z,95.79
2022-09-30T05:29:44.041Z,95.26
2022-09-30T05:32:40.855Z,93.61
2022-09-30T05:35:38.820Z,91.64
2022-09-30T05:38:36.162Z,89.70
2022-09-30T05:41:34.038Z,90.44
2022-09-30T05:44:31.004Z,90.87
2022-09-30T05:47:27.747Z,89.02
2022-09-30T05:50:24.857Z,89.80
2022-09-30T05:53:21.760Z,90.45
2022-09-30T05:56:18.954Z,89.30
2022-09-30T05:59:15.887Z,90.32
2022-09-30T06:02:14.162Z,90.54
2022-09-30T06:05:12.010Z,91.72
2022-09-30T06:08:10.405Z,91.28
2022-09-30T06:11:11.888Z,92.04
2022-09-30T06:14:09.314Z,91.25
2022-09-30T06:17:06.845Z,91.98
2022-09-30T06:20:05.292Z,95.06
2022-09-30T06:23:03.285Z,96.17
2022-09-30T06:26:01.351Z,98.09
2022-09-30T06:28:59.109Z,100.00
2022-09-30T06:31:55.977Z,98.93
2022-09-30T06:34:55.691Z,98.89
2022-09-30T06:37:52.774Z,99.33
2022-09-30T06:40:50.482Z,100.00
2022-09-30T06:43:52.387Z,100.00
2022-09-30T06:46:55.770Z,100.00
2022-09-30T06:49:53.309Z,100.00
2022-09-30T06:52:51.672Z,100.00
2022-09-30T06:55:48.927Z,100.00
2022-09-30T06:58:46.223Z,100.00
2022-09-30T07:01:44.383Z,100.00
2022-09-30T07:04:41.839Z,100.00
2022-09-30T07:07:38.859Z,95.78
2022-09-30T07:10:35.949Z,93.34
2022-09-30T07:13:33.391Z,91.13
2022-09-30T07:16:32.137Z,92.21
2022-09-30T07:19:28.648Z,90.22
2022-09-30T07:22:32.178Z,91.14
2022-09-30T07:25:28.733Z,90.67
2022-09-30T07:28:28.634Z,90.41
2022-09-30T07:31:35.254Z,89.90
2022-09-30T07:34:33.207Z,88.79
2022-09-30T07:37:32.726Z,89.12
2022-09-30T07:40:31.456Z,89.21
2022-09-30T07:43:39.034Z,87.59
2022-09-30T07:46:39.100Z,88.49
2022-09-30T07:49:36.983Z,87.97
2022-09-30T07:52:34.021Z,87.34
2022-09-30T07:55:30.915Z,86.18
2022-09-30T07:58:27.989Z,86.29
2022-09-30T08:01:25.371Z,88.65
2022-09-30T08:04:23.617Z,88.77
2022-09-30T08:07:21.097Z,88.42
2022-09-30T08:13:20.981Z,87.83
2022-09-30T08:16:18.466Z,88.36
2022-09-30T08:19:20.458Z,88.68
2022-09-30T08:22:17.871Z,87.45
2022-09-30T08:25:14.829Z,87.76
2022-09-30T08:28:13.329Z,87.54
2022-09-30T08:31:12.456Z,88.62
2022-09-30T08:34:09.769Z,87.46
2022-09-30T08:37:09.565Z,86.30
2022-09-30T08:40:06.987Z,86.01
2022-09-30T08:43:22.529Z,85.30
2022-09-30T08:46:28.432Z,84.15
2022-09-30T08:50:04.162Z,83.33
2022-09-30T08:53:08.464Z,84.52
2022-09-30T08:56:06.062Z,84.29
2022-09-30T08:59:15.220Z,82.34
2022-09-30T09:02:17.903Z,82.14
2022-09-30T09:05:30.793Z,83.87
2022-09-30T09:08:53.034Z,82.54
2022-09-30T09:12:00.540Z,82.40
2022-09-30T09:15:22.902Z,80.25
2022-09-30T09:18:38.655Z,81.89
2022-09-30T09:21:52.386Z,82.14
2022-09-30T09:24:50.837Z,80.86
2022-09-30T09:27:56.483Z,79.85
2022-09-30T09:30:57.408Z,79.86
2022-09-30T09:33:56.957Z,77.82
2022-09-30T09:37:18.240Z,77.82
2022-09-30T09:40:59.335Z,76.89
2022-09-30T09:44:14.257Z,78.34
2022-09-30T09:47:17.158Z,79.24
2022-09-30T09:50:18.021Z,79.54
2022-09-30T09:53:21.775Z,78.39
2022-09-30T09:56:20.881Z,76.87
2022-09-30T09:59:20.133Z,77.36
2022-09-30T10:02:31.604Z,76.72
2022-09-30T10:05:31.647Z,75.24
2022-09-30T10:08:31.216Z,75.43
2022-09-30T10:11:31.038Z,74.61
2022-09-30T10:14:28.226Z,73.77
2022-09-30T10:17:33.107Z,73.71
2022-09-30T10:20:32.216Z,73.79
2022-09-30T10:23:32.721Z,74.28
2022-09-30T10:26:30.119Z,73.76
2022-09-30T10:29:28.316Z,73.95
2022-09-30T10:32:28.265Z,73.61
2022-09-30T10:35:24.910Z,74.13
2022-09-30T10:38:26.633Z,73.90
2022-09-30T10:41:26.083Z,72.25
2022-09-30T10:44:23.424Z,72.04
2022-09-30T10:47:24.833Z,72.54
2022-09-30T10:50:25.112Z,73.71
2022-09-30T10:53:24.483Z,73.74
2022-09-30T10:56:38.452Z,71.31
2022-09-30T10:59:37.746Z,71.57
2022-09-30T11:02:48.266Z,71.52
2022-09-30T11:05:49.008Z,71.43
2022-09-30T11:09:16.785Z,68.97
2022-09-30T11:12:30.895Z,67.07
2022-09-30T11:15:36.704Z,67.08
2022-09-30T11:18:58.133Z,63.03
2022-09-30T11:22:12.846Z,60.44
2022-09-30T11:25:19.266Z,60.17
2022-09-30T11:28:37.917Z,64.57
2022-09-30T11:31:58.375Z,64.99
2022-09-30T11:35:20.943Z,66.91
2022-09-30T11:38:24.050Z,67.57
2022-09-30T11:41:33.251Z,67.94
2022-09-30T11:44:36.851Z,68.17
2022-09-30T11:48:15.394Z,64.58
2022-09-30T11:51:42.598Z,67.65
2022-09-30T11:54:55.109Z,68.27
2022-09-30T11:58:12.072Z,68.99
2022-09-30T12:01:30.581Z,69.59
2022-09-30T12:04:31.611Z,70.58
2022-09-30T12:07:51.208Z,70.74
2022-09-30T12:11:12.303Z,71.97
2022-09-30T12:14:19.705Z,71.87
2022-09-30T12:17:27.375Z,68.78
2022-09-30T12:20:36.408Z,68.45
2022-09-30T12:23:44.034Z,68.19
2022-09-30T12:26:41.315Z,68.87
2022-09-30T12:29:58.750Z,69.97
2022-09-30T12:33:31.835Z,68.28
2022-09-30T12:36:53.637Z,69.14
2022-09-30T12:40:28.807Z,68.61
2022-09-30T12:43:43.788Z,67.04
2022-09-30T12:46:49.896Z,67.09
2022-09-30T12:49:46.999Z,65.07
2022-09-30T12:52:44.518Z,65.82
2022-09-30T12:55:41.682Z,66.29
2022-09-30T12:58:44.350Z,66.64
2022-09-30T13:01:42.179Z,65.01
2022-09-30T13:04:42.916Z,66.29
2022-09-30T13:07:40.903Z,64.38
2022-09-30T13:10:38.047Z,64.73
2022-09-30T13:14:12.106Z,61.37
2022-09-30T13:17:08.716Z,62.05
2022-09-30T13:20:45.784Z,63.21
2022-09-30T13:23:44.086Z,63.17
2022-09-30T13:26:44.854Z,63.02
2022-09-30T13:29:47.752Z,62.84
2022-09-30T13:33:04.679Z,62.76
2022-09-30T13:36:07.722Z,61.42
2022-09-30T13:39:17.153Z,63.06
2022-09-30T13:42:17.788Z,63.87
2022-09-30T13:45:31.379Z,61.73
2022-09-30T13:48:33.700Z,63.07
2022-09-30T13:51:32.897Z,62.71
2022-09-30T13:54:34.076Z,61.98
2022-09-30T13:57:49.116Z,61.64
2022-09-30T14:00:49.162Z,62.42
2022-09-30T14:04:05.961Z,64.42
2022-09-30T14:07:45.190Z,63.24
2022-09-30T14:11:03.586Z,63.57
2022-09-30T14:14:08.525Z,61.43
2022-09-30T14:17:12.498Z,62.53
2022-09-30T14:20:29.874Z,61.09
2022-09-30T14:23:27.173Z,60.78
2022-09-30T14:26:30.078Z,61.78
2022-09-30T14:29:47.825Z,60.54
2022-09-30T14:33:07.599Z,60.57
2022-09-30T14:36:11.094Z,62.00
2022-09-30T14:39:14.080Z,61.92
2022-09-30T14:42:11.496Z,60.81
2022-09-30T14:45:08.679Z,60.95
2022-09-30T14:48:07.935Z,62.84
2022-09-30T14:51:07.777Z,61.97
2022-09-30T14:54:06.357Z,61.01
2022-09-30T14:57:04.202Z,62.49
2022-09-30T15:00:20.418Z,62.04
2022-09-30T15:03:17.376Z,62.17
2022-09-30T15:06:19.067Z,63.13
2022-09-30T15:09:29.885Z,64.08
2022-09-30T15:12:27.119Z,64.80
2022-09-30T15:15:24.166Z,63.14
2022-09-30T15:18:38.062Z,63.05
2022-09-30T15:21:35.493Z,63.44
2022-09-30T15:24:33.109Z,64.17
2022-09-30T15:27:31.227Z,62.79
2022-09-30T15:30:29.403Z,63.04
2022-09-30T15:33:31.969Z,63.82
2022-09-30T15:36:29.716Z,64.29
2022-09-30T15:39:51.612Z,63.24
2022-09-30T15:43:03.333Z,62.90
2022-09-30T15:46:27.017Z,62.14
2022-09-30T15:49:40.933Z,63.02
2022-09-30T15:52:42.480Z,62.38
2022-09-30T15:55:43.959Z,63.30
2022-09-30T15:58:42.338Z,63.76
2022-09-30T16:01:49.766Z,63.88
2022-09-30T16:04:51.933Z,63.22
2022-09-30T16:07:49.159Z,63.66
2022-09-30T16:10:49.473Z,64.98
2022-09-30T16:13:47.635Z,64.55
2022-09-30T16:16:51.171Z,64.83
2022-09-30T16:20:13.935Z,65.01
2022-09-30T16:23:26.930Z,64.59
2022-09-30T16:26:28.812Z,65.04
2022-09-30T16:29:26.865Z,64.51
2022-09-30T16:32:24.504Z,64.32
2022-09-30T16:35:22.963Z,64.59
2022-09-30T16:38:20.310Z,64.83
2022-09-30T16:41:17.388Z,65.16
2022-09-30T16:44:14.292Z,65.75
2022-09-30T16:47:16.241Z,67.07
2022-09-30T16:50:24.954Z,67.06
2022-09-30T16:53:23.198Z,66.76
2022-09-30T16:56:24.029Z,67.41
2022-09-30T16:59:21.190Z,68.12
2022-09-30T17:02:18.326Z,68.73
2022-09-30T17:05:20.073Z,69.72
2022-09-30T17:08:17.636Z,70.76
2022-09-30T17:11:14.850Z,70.97
2022-09-30T17:14:12.226Z,70.19
2022-09-30T17:17:13.433Z,70.36
2022-09-30T17:20:11.754Z,71.08
2022-09-30T17:23:09.251Z,71.50
2022-09-30T17:26:06.718Z,72.18
2022-09-30T17:29:21.107Z,73.65
2022-09-30T17:32:20.332Z,74.32
2022-09-30T17:35:17.768Z,75.05
2022-09-30T17:38:15.689Z,75.23
2022-09-30T17:41:31.626Z,75.36
2022-09-30T17:44:30.064Z,75.48
2022-09-30T17:47:27.390Z,75.95
2022-09-30T17:50:24.411Z,75.38
2022-09-30T17:53:21.713Z,75.71
2022-09-30T17:56:20.325Z,76.03
2022-09-30T17:59:19.870Z,75.94
2022-09-30T18:02:18.196Z,76.87
2022-09-30T18:05:15.674Z,77.66
2022-09-30T18:08:13.245Z,78.47
2022-09-30T18:11:11.633Z,79.06
2022-09-30T18:14:10.177Z,79.97
2022-09-30T18:17:07.430Z,80.01
2022-09-30T18:20:04.812Z,80.02
2022-09-30T18:23:02.690Z,80.57
2022-09-30T18:26:00.113Z,80.48
2022-09-30T18:28:58.294Z,80.71
2022-09-30T18:31:56.634Z,80.79
2022-09-30T18:34:53.402Z,81.07
2022-09-30T18:37:51.750Z,81.13
2022-09-30T18:40:50.055Z,81.53
2022-09-30T18:43:50.154Z,81.45
2022-09-30T18:46:47.462Z,81.44
2022-09-30T18:49:44.696Z,81.33
2022-09-30T18:52:41.887Z,81.42
2022-09-30T18:55:39.355Z,81.48
2022-09-30T18:58:37.399Z,81.95
2022-09-30T19:01:36.058Z,81.76
2022-09-30T19:04:33.809Z,81.68
2022-09-30T19:07:30.560Z,82.24
2022-09-30T19:10:27.624Z,82.55
2022-09-30T19:13:27.954Z,82.78
2022-09-30T19:16:26.250Z,82.89
2022-09-30T19:19:23.296Z,83.60
2022-09-30T19:22:24.901Z,82.65
2022-09-30T19:25:25.127Z,83.03
2022-09-30T19:28:22.773Z,83.41
2022-09-30T19:31:21.109Z,83.73
2022-09-30T19:34:29.955Z,84.72
2022-09-30T19:37:28.599Z,84.58
2022-09-30T19:40:25.416Z,84.80
2022-09-30T19:43:22.893Z,84.52
2022-09-30T19:46:21.778Z,85.01
2022-09-30T19:49:18.721Z,84.97
2022-09-30T19:52:21.993Z,84.79
2022-09-30T19:55:19.429Z,84.56
2022-09-30T19:58:16.684Z,84.68
2022-09-30T20:01:14.357Z,84.43
2022-09-30T20:04:12.872Z,84.55
2022-09-30T20:07:10.614Z,84.49
2022-09-30T20:10:07.884Z,84.93
2022-09-30T20:13:05.955Z,85.30
2022-09-30T20:16:08.961Z,85.89
2022-09-30T20:19:06.829Z,85.74
2022-09-30T20:22:05.406Z,85.73
2022-09-30T20:25:02.853Z,85.29
2022-09-30T20:27:59.658Z,85.69
2022-09-30T20:30:56.501Z,85.20
2022-09-30T20:33:57.180Z,85.46
2022-09-30T20:36:54.676Z,85.14
2022-09-30T20:39:51.316Z,85.17
2022-09-30T20:42:48.908Z,84.91
2022-09-30T20:45:52.909Z,84.79
2022-09-30T20:48:51.180Z,84.75
2022-09-30T20:51:48.641Z,85.26
2022-09-30T20:54:45.660Z,86.04
2022-09-30T20:57:44.784Z,85.92
2022-09-30T21:00:42.058Z,86.32
2022-09-30T21:03:40.446Z,86.94
2022-09-30T21:06:37.944Z,86.98
2022-09-30T21:09:35.647Z,87.11
2022-09-30T21:12:33.151Z,86.33
2022-09-30T21:15:31.297Z,86.36
2022-09-30T21:18:29.229Z,86.34
2022-09-30T21:21:26.976Z,87.34
2022-09-30T21:24:26.117Z,86.87
2022-09-30T21:27:23.775Z,86.39
2022-09-30T21:30:21.556Z,86.62
2022-09-30T21:33:19.618Z,86.35
2022-09-30T21:36:17.114Z,85.96
2022-09-30T21:39:14.657Z,85.62
2022-09-30T21:42:12.992Z,85.49
2022-09-30T21:45:10.832Z,85.98
2022-09-30T21:48:10.246Z,85.55
2022-09-30T21:51:07.794Z,85.35
2022-09-30T21:54:04.615Z,85.96
2022-09-30T21:57:01.659Z,85.98
2022-09-30T21:59:59.088Z,85.78
2022-09-30T22:02:57.743Z,85.67
2022-09-30T22:05:55.546Z,85.26
2022-09-30T22:08:52.815Z,85.88
2022-09-30T22:11:49.661Z,85.24
2022-09-30T22:14:46.398Z,85.49
2022-09-30T22:17:43.626Z,85.74
2022-09-30T22:20:40.769Z,85.61
2022-09-30T22:23:37.907Z,86.01
2022-09-30T22:26:35.093Z,85.98
2022-09-30T22:29:32.977Z,86.28
2022-09-30T22:32:29.945Z,86.68
2022-09-30T22:35:45.100Z,86.56
2022-09-30T22:38:43.489Z,86.87
2022-09-30T22:41:40.617Z,86.71
2022-09-30T22:44:37.936Z,87.69
2022-09-30T22:47:36.170Z,87.34
2022-09-30T22:50:35.580Z,87.55
2022-09-30T22:53:32.640Z,87.11
2022-09-30T22:56:31.169Z,87.01
2022-09-30T22:59:29.006Z,87.46
2022-09-30T23:02:26.472Z,87.49
2022-09-30T23:05:23.716Z,87.48
2022-09-30T23:08:22.166Z,87.79
2022-09-30T23:11:21.521Z,87.57
2022-09-30T23:14:18.686Z,87.22
2022-09-30T23:17:15.382Z,86.69
2022-09-30T23:20:13.603Z,86.74
2022-09-30T23:23:11.269Z,87.07
2022-09-30T23:26:19.390Z,86.04
2022-09-30T23:29:16.725Z,86.31
2022-09-30T23:32:14.131Z,86.32
2022-09-30T23:35:12.445Z,85.94
2022-09-30T23:38:09.911Z,85.80
2022-09-30T23:41:08.009Z,85.58
2022-09-30T23:44:05.811Z,85.34
2022-09-30T23:47:21.571Z,85.90
2022-09-30T23:50:18.448Z,85.15
2022-09-30T23:53:16.029Z,85.06
2022-09-30T23:56:14.328Z,84.48
2022-09-30T23:59:14.834Z,84.75
